Kanab, UT (84741)

10:02 AM MDT on July 26, 2016 (GMT -0600)
RAWS | | Change Station

Elev 5842 ft 37.14 °N, 112.45 °W | Updated 31 minutes ago

Clear
Clear
80 °F
Feels Like 79 °F
N
2
Wind Variable Wind from SW
Gusts 0.0 mph

Today
High -- | Low -- °F
--% Chance of Precip.
Yesterday
High -- | Low -- °F
Precip. -- in
Pressure 29.91 in
Visibility 10.0 miles
Clouds Clear
Heat Index 79 °F
Dew Point 42 °F
Humidity 26%
Rainfall in
Snow Depth Not available.
6:29 AM 8:40 PM
Waning Gibbous, 53% visible
METAR KPGA 261553Z AUTO 30004KT 10SM CLR 30/07 A3015 RMK AO2 SLP128 T03000072 TSNO
Pressure 29.91 in
Visibility 10.0 miles
Clouds Clear
Heat Index 79 °F
Dew Point 42 °F
Humidity 26%
Rainfall in
Snow Depth Not available.
6:29 AM 8:40 PM
Waning Gibbous, 53% visible
METAR KPGA 261553Z AUTO 30004KT 10SM CLR 30/07 A3015 RMK AO2 SLP128 T03000072 TSNO

10-Day Weather Forecast

Almanac

Astronomy

Jul. 26, 2016 Rise Set
Actual Time
Civil Twilight
Nautical Twilight
Astronomical Twilight
Moon
Length of Visible Light
Length of Day
Tomorrow will be .
, % of the Moon is Illuminated

Today's Extremes

State Highs State Lows

Community

WunderPhotos

Upload Photos

1,927,625 photos uploaded!

WunderBlog® & News

Nearby

Air Quality

  Air Quality AQ Index Pollutant
Not available.

Snow Depth

Station Depth Elevation

Earthquake Activity

City Distance Mag. Time & Date
Minimum magnitude displayed is 2.5.

Coastal Water Temperatures

Place Temperature

Stations

Nearby Weather Stations

Station Location Temp. Windchill Dew Point Humidity Wind Precip. Elev Updated Type
                   

Watches & Warnings

There are currently no watches in effect.